Time;durP1;ratioP1;P1;durP2;ratioP2;P2;SDS_P1;SDS_P2;PMS_P1;PMS_P2;Temp;Humidity;BMP_temperature;BMP_pressure;BME280_temperature;BME280_humidity;BME280_pressure;Samples;Min_cycle;Max_cycle;Signal;HPM_P1;HPM_P2
2022/02/13 00:01:37;;;;;;;24.75;9.40;;;;;;;-2.39;100.00;102797.84;1817231;79;21026;-88
2022/02/13 00:04:04;;;;;;;30.05;9.55;;;;;;;-2.44;100.00;102791.63;1817511;79;22455;-88
2022/02/13 00:06:30;;;;;;;27.52;9.58;;;;;;;-2.40;100.00;102803.61;1817361;79;20963;-87
2022/02/13 00:08:56;;;;;;;27.33;8.80;;;;;;;-2.41;100.00;102799.30;1817520;78;21139;-87
2022/02/13 00:11:23;;;;;;;26.52;9.45;;;;;;;-2.39;100.00;102805.28;1783107;79;20983;-87
2022/02/13 00:13:49;;;;;;;34.80;8.68;;;;;;;-2.39;100.00;102805.77;1817402;79;21015;-88
2022/02/13 00:16:16;;;;;;;23.20;8.80;;;;;;;-2.38;100.00;102812.26;1817330;79;21082;-87
2022/02/13 00:18:44;;;;;;;27.90;9.13;;;;;;;-2.37;100.00;102811.29;1772569;79;20988;-88
2022/02/13 00:21:10;;;;;;;22.95;8.48;;;;;;;-2.38;100.00;102810.08;1817038;79;21016;-87
2022/02/13 00:23:36;;;;;;;24.87;9.13;;;;;;;-2.40;100.00;102815.48;1817325;79;21517;-87
2022/02/13 00:26:03;;;;;;;26.70;8.68;;;;;;;-2.38;100.00;102813.58;1817169;79;21057;-87
2022/02/13 00:28:29;;;;;;;25.52;8.98;;;;;;;-2.37;100.00;102819.20;1817313;79;21031;-88
2022/02/13 00:30:55;;;;;;;26.05;9.33;;;;;;;-2.35;100.00;102812.02;1817378;78;20963;-88
2022/02/13 00:33:21;;;;;;;25.52;9.75;;;;;;;-2.34;100.00;102805.77;1817302;78;21929;-88
2022/02/13 00:35:47;;;;;;;30.27;10.28;;;;;;;-2.34;100.00;102801.80;1814424;78;20868;-87
2022/02/13 00:38:14;;;;;;;31.25;10.65;;;;;;;-2.33;100.00;102801.32;1817280;79;21003;-88
2022/02/13 00:40:40;;;;;;;28.05;10.48;;;;;;;-2.32;100.00;102806.50;1817335;78;21038;-88
2022/02/13 00:43:06;;;;;;;29.12;11.10;;;;;;;-2.32;100.00;102812.27;1817347;78;20998;-88
2022/02/13 00:45:33;;;;;;;32.00;11.45;;;;;;;-2.34;100.00;102818.13;1817414;78;21122;-87
2022/02/13 00:47:59;;;;;;;28.75;11.68;;;;;;;-2.32;100.00;102812.27;1817182;78;21479;-88
2022/02/13 00:50:25;;;;;;;28.55;11.57;;;;;;;-2.32;100.00;102817.06;1817133;79;20972;-88
2022/02/13 00:52:51;;;;;;;30.95;11.35;;;;;;;-2.33;100.00;102820.64;1772894;79;21026;-88
2022/02/13 00:55:17;;;;;;;29.00;10.50;;;;;;;-2.35;100.00;102825.70;1817437;79;20853;-88
2022/02/13 00:57:43;;;;;;;27.85;11.03;;;;;;;-2.38;100.00;102819.31;1816715;78;21051;-89
2022/02/13 01:00:10;;;;;;;30.72;11.25;;;;;;;-2.39;100.00;102823.77;1815818;79;20963;-88
2022/02/13 01:02:36;;;;;;;28.55;10.00;;;;;;;-2.37;100.00;102830.25;1817268;78;20972;-88
2022/02/13 01:05:03;;;;;;;26.05;10.08;;;;;;;-2.36;100.00;102826.16;1816632;78;20979;-88
2022/02/13 01:07:29;;;;;;;29.82;11.18;;;;;;;-2.37;100.00;102828.45;1816706;79;21050;-88
2022/02/13 01:09:55;;;;;;;25.48;9.93;;;;;;;-2.37;100.00;102824.48;1816918;79;21762;-88
2022/02/13 01:12:21;;;;;;;25.75;9.83;;;;;;;-2.37;100.00;102824.97;1802897;78;21214;-88
2022/02/13 01:14:47;;;;;;;31.77;10.08;;;;;;;-2.37;100.00;102831.09;1781797;80;21097;-89
2022/02/13 01:17:13;;;;;;;28.57;10.13;;;;;;;-2.39;100.00;102833.48;1781652;80;20833;-88
2022/02/13 01:19:39;;;;;;;31.82;9.63;;;;;;;-2.41;100.00;102827.47;1781851;80;21022;-88
2022/02/13 01:22:07;;;;;;;31.65;9.73;;;;;;;-2.43;100.00;102833.37;1748455;80;21087;-89
2022/02/13 01:24:32;;;;;;;34.63;10.25;;;;;;;-2.45;100.00;102834.80;1781023;80;21023;-88
2022/02/13 01:26:58;;;;;;;25.70;9.23;;;;;;;-2.45;100.00;102837.92;1781927;80;21010;-88
2022/02/13 01:29:24;;;;;;;25.35;8.78;;;;;;;-2.50;100.00;102846.19;1754384;80;20978;-88
2022/02/13 01:31:50;;;;;;;32.73;9.63;;;;;;;-2.53;100.00;102850.37;1782556;80;20884;-89
2022/02/13 01:34:18;;;;;;;32.08;9.78;;;;;;;-2.53;100.00;102853.89;1782249;80;21096;-88
2022/02/13 01:36:47;;;;;;;27.98;9.48;;;;;;;-2.52;100.00;102854.72;1782128;80;21027;-89
2022/02/13 01:39:14;;;;;;;25.05;9.38;;;;;;;-2.55;100.00;102857.11;1701005;84;21035;-89
2022/02/13 01:41:40;;;;;;;26.07;9.43;;;;;;;-2.56;100.00;102861.17;1700874;84;21091;-88
2022/02/13 01:44:06;;;;;;;28.60;9.75;;;;;;;-2.56;100.00;102865.13;1701298;84;21150;-88
2022/02/13 01:46:32;;;;;;;31.50;9.93;;;;;;;-2.59;100.00;102861.41;1720370;83;22597;-88
2022/02/13 01:48:58;;;;;;;29.02;10.03;;;;;;;-2.60;100.00;102866.34;1723253;83;21054;-88
2022/02/13 01:51:24;;;;;;;32.15;9.25;;;;;;;-2.61;100.00;102869.46;1723354;83;20963;-89
2022/02/13 01:53:50;;;;;;;29.42;9.35;;;;;;;-2.61;100.00;102877.86;1723007;83;21000;-88
2022/02/13 01:56:17;;;;;;;24.47;8.15;;;;;;;-2.63;100.00;102875.80;1723235;82;21030;-89
2022/02/13 01:58:44;;;;;;;22.98;8.40;;;;;;;-2.67;100.00;102873.05;1722961;81;21138;-88
2022/02/13 02:01:12;;;;;;;23.18;8.00;;;;;;;-2.70;100.00;102881.20;1718830;83;21034;-88
2022/02/13 02:03:38;;;;;;;24.18;8.55;;;;;;;-2.75;100.00;102885.49;1723000;83;21071;-89
2022/02/13 02:06:04;;;;;;;30.62;8.78;;;;;;;-2.81;100.00;102874.92;1702549;83;21599;-88
2022/02/13 02:08:30;;;;;;;28.12;8.98;;;;;;;-2.85;100.00;102870.00;1701562;84;20900;-88
2022/02/13 02:10:56;;;;;;;23.15;9.45;;;;;;;-2.90;100.00;102872.98;1701433;84;21198;-88
2022/02/13 02:13:22;;;;;;;23.62;9.13;;;;;;;-2.93;100.00;102869.73;1703654;84;21749;-88
2022/02/13 02:15:48;;;;;;;27.52;8.95;;;;;;;-2.97;100.00;102875.72;1646326;87;21019;-88
2022/02/13 02:18:14;;;;;;;23.20;7.80;;;;;;;-3.01;100.00;102867.66;1646565;87;20912;-88
2022/02/13 02:20:40;;;;;;;23.73;9.23;;;;;;;-3.05;100.00;102875.45;1646416;87;23158;-88
2022/02/13 02:23:06;;;;;;;137.25;44.23;;;;;;;-3.08;100.00;102876.99;1646562;87;21185;-88
2022/02/13 02:25:32;;;;;;;55.03;16.87;;;;;;;-3.09;100.00;102873.97;1646359;87;21745;-88
2022/02/13 02:27:58;;;;;;;26.82;9.65;;;;;;;-3.12;100.00;102871.56;1646542;87;20892;-88
2022/02/13 02:30:24;;;;;;;26.12;9.23;;;;;;;-3.21;100.00;102871.31;1646259;87;21665;-88
2022/02/13 02:32:49;;;;;;;17.15;8.00;;;;;;;-3.27;100.00;102872.21;1646220;87;21019;-88
2022/02/13 02:35:16;;;;;;;22.50;9.05;;;;;;;-3.37;100.00;102872.05;1662074;82;21083;-88
2022/02/13 02:37:42;;;;;;;23.40;8.65;;;;;;;-3.38;100.00;102877.42;1742590;82;21007;-89
2022/02/13 02:40:09;;;;;;;25.17;8.45;;;;;;;-3.37;100.00;102876.48;1743087;82;21007;-88
2022/02/13 02:42:35;;;;;;;28.65;8.50;;;;;;;-3.39;100.00;102881.86;1742997;82;21046;-89
2022/02/13 02:45:03;;;;;;;25.75;8.13;;;;;;;-3.38;100.00;102879.61;1743356;82;20947;-88
2022/02/13 02:47:29;;;;;;;20.00;8.05;;;;;;;-3.37;100.00;102875.17;1796348;79;21096;-89
2022/02/13 02:49:54;;;;;;;19.92;7.90;;;;;;;-3.40;100.00;102871.44;1780623;79;20876;-89
2022/02/13 02:52:20;;;;;;;23.55;8.33;;;;;;;-3.45;100.00;102866.48;1814351;79;20879;-88
2022/02/13 02:54:46;;;;;;;21.97;7.35;;;;;;;-3.50;100.00;102867.30;1814814;79;20930;-89
2022/02/13 02:57:12;;;;;;;23.40;8.48;;;;;;;-3.51;100.00;102864.30;1814420;79;20942;-88
2022/02/13 02:59:40;;;;;;;19.35;7.58;;;;;;;-3.53;100.00;102868.83;1814688;79;21094;-89
2022/02/13 03:02:06;;;;;;;19.80;8.28;;;;;;;-3.57;100.00;102866.06;1814309;78;20995;-89
2022/02/13 03:04:32;;;;;;;26.73;8.30;;;;;;;-3.61;100.00;102869.41;1814645;79;20995;-89
2022/02/13 03:06:58;;;;;;;22.07;8.73;;;;;;;-3.63;100.00;102875.73;1814648;79;20920;-88
2022/02/13 03:09:24;;;;;;;27.80;8.85;;;;;;;-3.69;100.00;102881.80;1814694;79;21050;-89
2022/02/13 03:11:50;;;;;;;28.95;9.48;;;;;;;-3.74;100.00;102882.59;1809744;79;21866;-89
2022/02/13 03:14:16;;;;;;;24.05;9.58;;;;;;;-3.77;100.00;102881.98;1803905;79;20869;-89
2022/02/13 03:16:41;;;;;;;21.82;9.88;;;;;;;-3.79;100.00;102879.47;1804067;79;21606;-89
2022/02/13 03:19:07;;;;;;;26.73;10.03;;;;;;;-3.86;100.00;102874.25;1803826;79;20951;-89
2022/02/13 03:21:33;;;;;;;20.70;9.40;;;;;;;-3.96;100.00;102875.38;1800025;79;20893;-89
2022/02/13 03:23:59;;;;;;;27.07;10.60;;;;;;;-4.09;100.00;102881.13;1757575;80;21292;-89
2022/02/13 03:26:27;;;;;;;22.30;10.05;;;;;;;-4.16;100.00;102884.67;1781490;79;20951;-88
2022/02/13 03:28:53;;;;;;;26.62;10.58;;;;;;;-4.19;100.00;102886.68;1754846;80;21105;-89
2022/02/13 03:31:19;;;;;;;26.23;10.82;;;;;;;-4.21;100.00;102888.09;1754674;81;21495;-89
2022/02/13 03:33:44;;;;;;;28.60;11.40;;;;;;;-4.22;100.00;102890.36;1754836;81;20912;-88
2022/02/13 03:36:11;;;;;;;30.90;12.65;;;;;;;-4.22;100.00;102890.36;1754525;81;21359;-89
2022/02/13 03:38:36;;;;;;;35.80;13.98;;;;;;;-4.26;100.00;102887.58;1755080;81;21425;-88
2022/02/13 03:41:03;;;;;;;31.00;12.82;;;;;;;-4.30;100.00;102884.78;1754758;81;20970;-89
2022/02/13 03:43:29;;;;;;;34.33;12.98;;;;;;;-4.34;100.00;102887.27;1754331;81;21029;-89
2022/02/13 03:45:54;;;;;;;33.95;13.53;;;;;;;-4.35;100.00;102894.80;1754514;81;20895;-89
2022/02/13 03:48:20;;;;;;;34.73;14.07;;;;;;;-4.36;100.00;102894.41;1754618;80;20978;-89
2022/02/13 03:50:46;;;;;;;31.73;13.30;;;;;;;-4.37;100.00;102904.09;1778980;79;20947;-89
2022/02/13 03:53:12;;;;;;;28.52;12.00;;;;;;;-4.37;100.00;102909.84;1780017;79;20972;-89
2022/02/13 03:55:38;;;;;;;32.17;11.65;;;;;;;-4.38;100.00;102905.06;1784641;79;21567;-89
2022/02/13 03:58:04;;;;;;;23.52;10.75;;;;;;;-4.38;100.00;102909.00;1785368;79;20991;-89
2022/02/13 04:00:30;;;;;;;26.50;10.48;;;;;;;-4.37;100.00;102908.53;1773995;79;21079;-89
2022/02/13 04:02:56;;;;;;;22.65;9.85;;;;;;;-4.38;100.00;102909.00;1784543;79;20997;-89
2022/02/13 04:05:23;;;;;;;24.15;9.73;;;;;;;-4.38;100.00;102914.75;1779254;79;21019;-89
2022/02/13 04:07:50;;;;;;;25.17;10.13;;;;;;;-4.41;100.00;102909.66;1777033;80;21533;-89
2022/02/13 04:10:16;;;;;;;24.57;9.60;;;;;;;-4.44;100.00;102916.00;1777074;80;21040;-89
2022/02/13 04:12:42;;;;;;;26.30;10.18;;;;;;;-4.43;100.00;102911.58;1763030;80;21800;-89
2022/02/13 04:15:10;;;;;;;21.48;9.25;;;;;;;-4.42;100.00;102910.62;1768645;80;21082;-89
2022/02/13 04:17:36;;;;;;;23.10;8.83;;;;;;;-4.44;100.00;102905.48;1770852;80;21075;-89
2022/02/13 04:20:04;;;;;;;24.98;9.43;;;;;;;-4.47;100.00;102909.63;1780860;79;20923;-89
2022/02/13 04:22:30;;;;;;;26.23;10.65;;;;;;;-4.51;100.00;102908.61;1781815;80;20916;-89
2022/02/13 04:24:56;;;;;;;26.85;10.43;;;;;;;-4.57;100.00;102915.13;1780486;78;21960;-89
2022/02/13 04:27:22;;;;;;;22.48;10.08;;;;;;;-4.61;100.00;102914.98;1770341;78;21146;-89
2022/02/13 04:29:49;;;;;;;24.12;9.50;;;;;;;-4.64;100.00;102913.87;1774041;80;20989;-89
2022/02/13 04:32:15;;;;;;;25.68;9.95;;;;;;;-4.67;100.00;102912.76;1768566;80;21574;-89
2022/02/13 04:34:42;;;;;;;30.37;12.43;;;;;;;-4.69;100.00;102914.16;1771294;80;20948;-89
2022/02/13 04:37:08;;;;;;;26.87;10.68;;;;;;;-4.71;100.00;102922.62;1778968;80;21052;-89
2022/02/13 04:39:34;;;;;;;28.10;11.88;;;;;;;-4.72;100.00;102917.00;1777400;80;27828;-89
2022/02/13 04:42:00;;;;;;;33.25;12.18;;;;;;;-4.72;100.00;102924.05;1769114;80;21082;-89
2022/02/13 04:44:26;;;;;;;29.18;10.55;;;;;;;-4.75;100.00;102929.52;1776984;80;20869;-89
2022/02/13 04:46:52;;;;;;;52.30;18.20;;;;;;;-4.77;100.00;102932.71;1773867;80;20904;-88
2022/02/13 04:49:18;;;;;;;70.30;21.68;;;;;;;-4.79;100.00;102942.03;1770802;80;21121;-89
2022/02/13 04:51:44;;;;;;;96.22;28.52;;;;;;;-4.80;100.00;102949.05;1771917;78;21043;-89
2022/02/13 04:54:10;;;;;;;118.28;36.40;;;;;;;-4.80;100.00;102948.22;1745705;80;21528;-90
2022/02/13 04:56:36;;;;;;;101.33;32.50;;;;;;;-4.78;100.00;102949.45;1775398;80;20887;-91
2022/02/13 04:59:02;;;;;;;79.87;26.55;;;;;;;-4.80;100.00;102954.79;1773586;80;20955;-90
2022/02/13 05:01:29;;;;;;;88.40;27.98;;;;;;;-4.80;100.00;102963.52;1767638;79;21051;-91
2022/02/13 05:03:56;;;;;;;74.03;24.77;;;;;;;-4.79;100.00;102955.18;1776875;80;20999;-88
2022/02/13 05:06:22;;;;;;;55.63;20.75;;;;;;;-4.73;100.00;102954.77;1777292;78;21530;-90
2022/02/13 05:08:48;;;;;;;42.65;16.00;;;;;;;-4.66;100.00;102959.98;1773299;80;21023;-91
2022/02/13 05:11:14;;;;;;;35.75;13.70;;;;;;;-4.59;100.00;102963.92;1771098;80;21006;-89
2022/02/13 05:13:40;;;;;;;36.75;14.33;;;;;;;-4.48;100.00;102964.50;1735384;81;21052;-89
2022/02/13 05:16:06;;;;;;;35.52;13.50;;;;;;;-4.39;100.00;102964.36;1759813;80;20947;-89
2022/02/13 05:18:32;;;;;;;38.53;13.38;;;;;;;-4.25;100.00;102970.86;1768957;80;20982;-89
2022/02/13 05:20:58;;;;;;;35.43;13.68;;;;;;;-4.14;100.00;102969.66;1750843;80;20928;-90
2022/02/13 05:23:25;;;;;;;35.65;12.82;;;;;;;-3.99;100.00;102969.08;1756776;80;21101;-89
2022/02/13 05:25:51;;;;;;;35.92;13.08;;;;;;;-3.86;100.00;102977.45;1753620;80;21080;-89
2022/02/13 05:28:17;;;;;;;37.88;13.78;;;;;;;-3.73;100.00;102978.30;1755922;80;20975;-90
2022/02/13 05:30:43;;;;;;;30.57;12.33;;;;;;;-3.56;100.00;102986.31;1760449;80;21598;-90
2022/02/13 05:33:09;;;;;;;31.95;12.10;;;;;;;-3.31;100.00;102986.28;1751880;81;20895;-90
2022/02/13 05:35:35;;;;;;;33.28;11.22;;;;;;;-2.70;100.00;102989.39;1751922;81;21542;-90
2022/02/13 05:38:01;;;;;;;32.65;11.38;;;;;;;-2.04;100.00;102980.45;1752012;81;21098;-90
2022/02/13 05:40:27;;;;;;;28.25;11.20;;;;;;;-1.42;100.00;102985.28;1754944;80;21042;-90
2022/02/13 05:42:53;;;;;;;32.55;11.00;;;;;;;-0.98;100.00;102983.03;1752517;81;21550;-91
2022/02/13 05:45:19;;;;;;;30.25;11.25;;;;;;;-0.26;100.00;102986.85;1752205;81;21062;-91
2022/02/13 05:47:48;;;;;;;26.68;10.70;;;;;;;0.71;100.00;102988.66;1756712;80;20892;-92
2022/02/13 05:50:14;;;;;;;33.75;10.70;;;;;;;1.55;100.00;103001.45;1760775;80;21882;-90
2022/02/13 05:52:40;;;;;;;48.52;10.55;;;;;;;2.54;100.00;102993.95;1751507;81;21060;-91
2022/02/13 05:55:07;;;;;;;48.42;11.50;;;;;;;3.21;100.00;102990.55;1753437;80;21489;-90
2022/02/13 05:57:33;;;;;;;23.62;10.72;;;;;;;3.71;100.00;102998.48;1753504;79;21667;-90
2022/02/13 05:59:59;;;;;;;22.60;9.35;;;;;;;4.27;100.00;102999.35;1753945;80;21008;-91
2022/02/13 06:02:25;;;;;;;24.45;9.65;;;;;;;4.65;100.00;102997.70;1758686;80;21091;-91
2022/02/13 06:04:52;;;;;;;23.77;10.38;;;;;;;5.25;100.00;102997.52;1758705;79;20895;-92
2022/02/13 06:07:18;;;;;;;22.70;9.78;;;;;;;6.07;100.00;102994.86;1765021;80;21101;-92
2022/02/13 06:09:44;;;;;;;24.70;10.68;;;;;;;7.17;100.00;102998.91;1751479;81;21574;-92
2022/02/13 06:12:11;;;;;;;30.45;10.38;;;;;;;8.45;100.00;103002.98;1769430;78;21014;-92
2022/02/13 06:14:37;;;;;;;45.50;11.57;;;;;;;9.59;100.00;102999.19;1787581;78;21078;-92
2022/02/13 06:17:05;;;;;;;25.90;10.65;;;;;;;10.71;100.00;103000.13;1777228;79;21038;-91
2022/02/13 06:19:31;;;;;;;17.80;9.25;;;;;;;11.71;100.00;102993.91;1797436;78;20976;-93
2022/02/13 06:21:57;;;;;;;18.57;8.98;;;;;;;12.77;100.00;102992.03;1765199;80;21046;-91
2022/02/13 06:24:23;;;;;;;15.98;9.75;;;;;;;14.09;100.00;102999.21;1765918;80;21011;-93
2022/02/13 06:26:49;;;;;;;19.32;9.55;;;;;;;14.95;100.00;102987.05;1771384;80;21319;-93
2022/02/13 06:29:16;;;;;;;15.72;8.63;;;;;;;15.52;100.00;102991.50;1767471;80;20955;-93
2022/02/13 06:31:42;;;;;;;18.45;8.93;;;;;;;16.15;100.00;102993.26;1770455;80;21070;-93
2022/02/13 06:34:08;;;;;;;15.48;8.85;;;;;;;16.73;93.54;102991.77;1766481;80;21071;-91
2022/02/13 06:36:34;;;;;;;17.77;8.95;;;;;;;17.22;94.43;103000.89;1767749;80;21071;-91
2022/02/13 06:39:00;;;;;;;17.15;9.25;;;;;;;17.78;90.22;102996.94;1765547;80;21980;-94
2022/02/13 06:41:26;;;;;;;15.28;8.83;;;;;;;18.36;72.64;102999.67;1762612;80;21347;-91
2022/02/13 06:43:52;;;;;;;14.23;8.80;;;;;;;19.10;72.11;102995.08;1759956;80;21078;-93
2022/02/13 06:46:19;;;;;;;14.75;8.53;;;;;;;19.73;62.79;102993.98;1775978;79;21468;-93
2022/02/13 06:48:45;;;;;;;15.55;8.25;;;;;;;20.19;58.28;102986.88;1776340;79;21039;-91
2022/02/13 06:51:11;;;;;;;14.58;8.80;;;;;;;20.65;55.04;102990.40;1762816;80;21689;-92
2022/02/13 06:53:37;;;;;;;13.95;8.03;;;;;;;21.40;54.50;102981.75;1782410;79;20943;-91
2022/02/13 06:56:04;;;;;;;15.38;8.45;;;;;;;21.60;49.15;102981.74;1783351;78;21137;-92
2022/02/13 06:58:30;;;;;;;12.18;8.28;;;;;;;21.80;47.11;102989.13;1785126;79;21070;-92
2022/02/13 07:00:56;;;;;;;12.65;8.65;;;;;;;22.16;47.33;102989.03;1778366;79;21054;-91
2022/02/13 07:03:22;;;;;;;14.07;8.43;;;;;;;22.36;44.33;102993.67;1787989;79;21102;-92
2022/02/13 07:05:48;;;;;;;15.75;9.48;;;;;;;22.93;44.88;102987.31;1778710;79;21015;-92
2022/02/13 07:08:14;;;;;;;14.28;8.85;;;;;;;23.52;42.19;102985.76;1780538;79;21528;-92
2022/02/13 07:10:40;;;;;;;14.47;8.90;;;;;;;23.69;40.62;102983.95;1784244;79;20927;-93
2022/02/13 07:13:06;;;;;;;13.55;8.45;;;;;;;24.10;40.94;102979.41;1786038;78;21340;-92
2022/02/13 07:15:34;;;;;;;15.98;8.53;;;;;;;24.50;38.40;102975.08;1770067;79;40795;-92
2022/02/13 07:18:01;;;;;;;13.15;7.72;;;;;;;24.29;37.27;102977.25;1792084;79;21571;-92
2022/02/13 07:20:27;;;;;;;12.55;8.20;;;;;;;23.87;35.08;102973.34;1756936;79;21450;-91
2022/02/13 07:22:53;;;;;;;15.63;8.30;;;;;;;24.11;37.21;102980.23;1788987;79;20971;-90
2022/02/13 07:25:19;;;;;;;13.62;7.65;;;;;;;24.53;36.12;102982.75;1792146;79;20978;-91
2022/02/13 07:27:45;;;;;;;9.35;6.62;;;;;;;24.98;34.94;102974.38;1791447;79;21178;-91
2022/02/13 07:30:13;;;;;;;12.37;7.08;;;;;;;25.01;34.47;102979.30;1788970;79;20983;-94
2022/02/13 07:32:43;;;;;;;10.93;6.67;;;;;;;25.40;33.75;102975.94;1791341;79;21492;-93
2022/02/13 07:35:09;;;;;;;12.73;6.90;;;;;;;25.45;33.44;102973.09;1737934;80;21078;-93
2022/02/13 07:37:36;;;;;;;10.55;6.97;;;;;;;25.79;33.25;102966.63;1738924;81;21163;-93
2022/02/13 07:40:07;;;;;;;10.53;6.60;;;;;;;26.30;32.41;102977.27;1742632;80;21312;-93
2022/02/13 07:42:33;;;;;;;8.77;5.63;;;;;;;26.86;31.14;102963.58;1738190;81;21543;-93
2022/02/13 07:44:59;;;;;;;11.30;6.20;;;;;;;27.13;30.24;102970.94;1734623;80;21051;-93
2022/02/13 07:47:25;;;;;;;8.40;5.85;;;;;;;26.82;29.31;102968.66;1742513;80;20871;-91
2022/02/13 07:49:52;;;;;;;8.90;5.90;;;;;;;26.75;29.87;102964.14;1740403;81;21063;-90
2022/02/13 07:52:18;;;;;;;9.65;5.55;;;;;;;27.02;29.87;102971.51;1741108;81;21136;-90
2022/02/13 07:54:44;;;;;;;11.08;6.22;;;;;;;27.39;28.41;102965.61;1743818;81;21144;-90
2022/02/13 07:57:10;;;;;;;10.03;6.03;;;;;;;27.46;28.52;102966.53;1744272;81;21747;-90
2022/02/13 07:59:42;;;;;;;7.58;5.60;;;;;;;27.78;28.62;102972.88;1743178;81;20862;-91
2022/02/13 08:02:05;;;;;;;7.78;5.12;;;;;;;28.56;27.58;102969.54;1737771;81;21134;-89
2022/02/13 08:04:30;;;;;;;8.78;5.10;;;;;;;28.60;27.29;102969.16;1735590;82;21043;-90
2022/02/13 08:06:56;;;;;;;7.17;4.67;;;;;;;28.51;26.74;102961.63;1735634;82;20975;-90
2022/02/13 08:09:22;;;;;;;7.65;5.05;;;;;;;28.70;26.51;102961.30;1735732;82;20955;-90
2022/02/13 08:11:48;;;;;;;7.15;4.90;;;;;;;28.89;26.08;102964.34;1746771;80;20924;-90
2022/02/13 08:14:14;;;;;;;7.67;4.80;;;;;;;29.34;25.33;102970.91;1741368;80;21070;-92
2022/02/13 08:16:40;;;;;;;7.35;4.87;;;;;;;29.14;23.64;102973.22;1760198;80;21411;-91
2022/02/13 08:19:08;;;;;;;6.28;4.25;;;;;;;28.69;24.45;102970.78;1760398;80;20961;-90
2022/02/13 08:21:34;;;;;;;6.72;4.55;;;;;;;28.39;24.45;102972.52;1760868;80;21465;-91
2022/02/13 08:24:00;;;;;;;6.42;4.47;;;;;;;28.31;24.42;102979.67;1760575;80;21050;-92
2022/02/13 08:26:26;;;;;;;8.55;4.25;;;;;;;28.16;23.74;102980.14;1760350;80;20927;-90
2022/02/13 08:28:52;;;;;;;8.40;4.87;;;;;;;27.86;24.31;102973.52;1760590;80;21282;-89
2022/02/13 08:31:19;;;;;;;6.47;4.83;;;;;;;28.41;24.61;102967.48;1773913;78;20926;-89
2022/02/13 08:33:45;;;;;;;10.13;4.90;;;;;;;28.65;23.79;102970.36;1824926;78;21025;-88
2022/02/13 08:36:10;;;;;;;8.03;4.72;;;;;;;28.73;24.12;102975.91;1825259;78;20852;-89
2022/02/13 08:38:37;;;;;;;8.95;5.95;;;;;;;28.97;23.89;102975.98;1825490;78;20888;-88
2022/02/13 08:41:03;;;;;;;10.03;6.37;;;;;;;29.12;24.09;102981.63;1825279;78;21073;-88
2022/02/13 08:43:29;;;;;;;8.58;5.47;;;;;;;29.07;23.03;102977.66;1807291;78;21495;-89
2022/02/13 08:45:56;;;;;;;9.00;5.65;;;;;;;28.60;23.17;102979.67;1788180;78;20967;-89
2022/02/13 08:48:22;;;;;;;8.28;5.65;;;;;;;28.13;22.68;102977.20;1782060;80;20951;-89
2022/02/13 08:50:48;;;;;;;8.15;5.65;;;;;;;28.01;22.97;102965.34;1797502;78;21010;-88
2022/02/13 08:53:14;;;;;;;7.50;4.65;;;;;;;28.11;22.91;102971.96;1804465;79;21927;-87
2022/02/13 08:55:42;;;;;;;9.50;4.65;;;;;;;26.83;21.78;102984.16;1813991;79;21016;-87
2022/02/13 08:58:08;;;;;;;7.83;4.25;;;;;;;23.64;23.71;102979.05;1780700;79;21046;-87
2022/02/13 09:00:34;;;;;;;7.67;4.65;;;;;;;21.35;24.63;102986.65;1814732;78;21004;-87
2022/02/13 09:03:00;;;;;;;7.75;4.17;;;;;;;19.79;25.54;102991.56;1807573;79;20991;-87
2022/02/13 09:05:26;;;;;;;9.23;4.15;;;;;;;17.83;25.99;102994.30;1814599;79;21101;-87
2022/02/13 09:07:52;;;;;;;8.33;3.75;;;;;;;16.01;28.37;102991.34;1814313;78;20993;-88
2022/02/13 09:10:19;;;;;;;9.20;4.00;;;;;;;14.68;28.82;102983.88;1814419;79;21007;-88
2022/02/13 09:12:46;;;;;;;11.05;4.25;;;;;;;13.40;30.63;102978.02;1814547;78;21051;-87
2022/02/13 09:15:12;;;;;;;8.35;3.90;;;;;;;12.54;32.51;102974.95;1817439;78;21153;-87
2022/02/13 09:17:38;;;;;;;10.93;4.40;;;;;;;11.73;33.91;102972.90;1817490;79;21056;-87
2022/02/13 09:22:34;;;;;;;10.60;3.55;;;;;;;10.21;35.36;102971.46;1685470;83;21017;-90
2022/02/13 09:25:00;;;;;;;6.83;3.10;;;;;;;9.70;35.38;102976.27;1683223;83;20981;-87
2022/02/13 09:27:26;;;;;;;5.47;2.50;;;;;;;9.07;36.00;102972.91;1660898;85;21082;-88
2022/02/13 09:29:54;;;;;;;8.75;3.00;;;;;;;8.57;37.13;102967.06;1683713;85;21093;-87
2022/02/13 09:32:20;;;;;;;10.55;3.50;;;;;;;8.16;37.34;102966.17;1683394;85;21020;-86
2022/02/13 09:34:47;;;;;;;8.43;3.45;;;;;;;7.77;37.96;102965.08;1683448;85;21619;-90
2022/02/13 09:37:13;;;;;;;10.40;3.40;;;;;;;7.43;38.69;102967.20;1683687;85;21063;-86
2022/02/13 09:39:39;;;;;;;10.05;3.67;;;;;;;7.04;39.04;102964.14;1660314;85;21051;-87
2022/02/13 09:42:06;;;;;;;8.53;3.37;;;;;;;6.80;40.22;102958.42;1683342;84;21135;-87
2022/02/13 09:44:33;;;;;;;7.20;2.75;;;;;;;6.73;40.74;102953.42;1683646;85;20983;-87
2022/02/13 09:46:59;;;;;;;6.80;3.10;;;;;;;6.52;41.10;102945.16;1683280;85;21445;-87
2022/02/13 09:49:26;;;;;;;7.42;2.87;;;;;;;6.27;41.68;102939.92;1683467;85;21055;-86
2022/02/13 09:51:52;;;;;;;8.95;3.00;;;;;;;6.10;41.54;102945.83;1683606;85;21079;-87
2022/02/13 09:54:18;;;;;;;10.08;3.27;;;;;;;5.94;41.84;102953.05;1683267;85;21886;-86
2022/02/13 09:56:47;;;;;;;8.63;3.15;;;;;;;5.68;42.41;102952.23;1683287;84;21075;-87
2022/02/13 09:59:12;;;;;;;8.45;3.47;;;;;;;5.56;43.01;102957.61;1682576;84;21553;-86
2022/02/13 10:01:45;;;;;;;10.72;3.77;;;;;;;5.46;43.93;102952.41;1683482;84;21088;-88
2022/02/13 10:04:14;;;;;;;6.87;2.62;;;;;;;5.46;44.34;102954.25;1602875;89;21093;-87
2022/02/13 10:06:41;;;;;;;9.10;3.50;;;;;;;5.30;44.69;102948.41;1602787;89;21222;-86
2022/02/13 10:09:10;;;;;;;8.38;3.33;;;;;;;5.19;44.97;102942.05;1603329;89;21101;-87
2022/02/13 10:11:39;;;;;;;7.67;3.35;;;;;;;5.15;44.26;102942.05;1603232;89;21405;-87
2022/02/13 10:16:45;;;;;;;6.97;2.58;;;;;;;5.11;44.47;102938.85;1593377;90;21256;-86
2022/02/13 10:19:20;;;;;;;7.80;2.80;;;;;;;5.11;44.38;102940.69;1567541;89;21412;-86
2022/02/13 10:21:56;;;;;;;8.53;2.80;;;;;;;5.05;43.43;102934.17;1563564;91;21032;-86
2022/02/13 10:24:38;;;;;;;8.00;3.12;;;;;;;5.03;45.00;102930.84;1536979;93;21069;-86
2022/02/13 10:27:12;;;;;;;7.25;3.00;;;;;;;4.96;45.34;102933.83;1530543;93;21182;-86
2022/02/13 10:29:45;;;;;;;6.28;2.83;;;;;;;4.91;45.24;102928.99;1440673;99;21668;-86
2022/02/13 10:32:25;;;;;;;10.40;3.73;;;;;;;4.91;45.15;102927.66;1440753;99;21492;-85
2022/02/13 10:35:10;;;;;;;7.87;3.10;;;;;;;4.91;46.23;102918.31;1435511;99;21442;-85
2022/02/13 10:37:47;;;;;;;8.75;3.02;;;;;;;4.90;46.45;102915.78;1425731;99;21145;-86
2022/02/13 10:40:17;;;;;;;9.83;2.70;;;;;;;4.89;45.29;102908.78;1419638;99;21242;-86
2022/02/13 10:42:44;;;;;;;7.25;2.83;;;;;;;4.86;45.92;102910.45;1438598;99;21693;-85
2022/02/13 10:45:23;;;;;;;6.50;2.62;;;;;;;4.81;45.98;102908.25;1414656;101;21209;-85
2022/02/13 10:47:52;;;;;;;7.72;2.45;;;;;;;4.81;46.11;102906.09;1417927;99;21190;-85
2022/02/13 10:50:20;;;;;;;9.05;2.50;;;;;;;4.80;46.17;102905.77;1419511;101;21098;-85
2022/02/13 10:52:50;;;;;;;11.57;3.05;;;;;;;4.78;46.58;102904.08;1419482;101;21114;-84
2022/02/13 10:55:19;;;;;;;10.13;2.80;;;;;;;4.72;46.56;102901.23;1419601;101;21515;-86
2022/02/13 10:57:46;;;;;;;6.47;2.30;;;;;;;4.64;46.37;102899.88;1419255;101;21205;-86
2022/02/13 11:00:16;;;;;;;6.03;2.12;;;;;;;4.58;46.39;102900.02;1428637;97;21164;-86
2022/02/13 11:02:50;;;;;;;7.08;2.22;;;;;;;4.63;46.02;102898.21;1485665;96;21210;-86
2022/02/13 11:05:26;;;;;;;5.62;2.62;;;;;;;4.63;45.77;102887.53;1485750;96;21102;-86
2022/02/13 11:07:56;;;;;;;5.15;2.08;;;;;;;4.65;46.14;102883.70;1485214;96;21117;-86
2022/02/13 11:10:29;;;;;;;5.53;2.30;;;;;;;4.67;45.75;102882.19;1467561;96;22283;-87
2022/02/13 11:12:56;;;;;;;5.80;2.10;;;;;;;4.66;45.63;102884.02;1487687;95;21092;-86
2022/02/13 11:15:28;;;;;;;7.55;2.30;;;;;;;4.61;45.88;102874.83;1490085;94;21119;-86
2022/02/13 11:18:05;;;;;;;6.42;2.47;;;;;;;4.63;46.59;102880.85;1527576;93;21591;-86